Ciney, Belgium
Current Conditions -  °F | °C
As of 6:25 AM on Friday 28 Nov 2014 (Local Time) from EBFS Reporting Station
Broken Clouds Broken Clouds  
Wind Chill: 41°   Ceiling: 6000
Heat Index: 46°   Visibility: 6mi
Dew Point: 43°   Wind: 10mph
Humidity: 87%   Direction: 120°ESE
Pressure: 29.65"   Gusts: NA
Location:  50.29°N, 5.1°E
Report Text: EBFS 280525Z 12009KT 9000 BKN060 08/06 Q1004 BLU
Loading
Personal Weather Stations






























Interactive Weather Map New forecast layout! Learn more

10-Day Weather Forecast

Advertisements
Track Severe Weather on mobile